CheckWX is a tool to help pilots better visualize weather data.  It is not intended as a substitute for an official pre-flight weather briefing.

20:38:19 UTC

VTUQ TAF
Nakhon Ratchasima Airport
Thailand
TAF VTUQ 261700Z 2618/2718 09005KT 9000 NSC

Jan-26@
18:00 UTC

Jan-26 @ 18:00 UTC

Jan-27@
18:00 UTC

Jan-27 @ 18:00 UTC

TAF VTUQ 261700Z 2618/2718 09005KT 9000 NSC
Wind
  • 090° at 5 KTS
Cloud Levels
  • No significant clouds